Time;durP1;ratioP1;P1;durP2;ratioP2;P2;SDS_P1;SDS_P2;PMS_P1;PMS_P2;Temp;Humidity;BMP_temperature;BMP_pressure;BME280_temperature;BME280_humidity;BME280_pressure;Samples;Min_cycle;Max_cycle;Signal;HPM_P1;HPM_P2
2023/09/11 00:00:58;;;;;;;16.35;10.55;;;;;;;21.53;100.00;101141.31;4933902;29;20115;-68
2023/09/11 00:03:24;;;;;;;16.13;10.43;;;;;;;21.53;100.00;101133.41;4915099;29;20458;-68
2023/09/11 00:05:50;;;;;;;17.00;11.73;;;;;;;21.52;100.00;101137.03;4930647;28;20063;-68
2023/09/11 00:08:15;;;;;;;14.30;10.20;;;;;;;21.51;100.00;101137.25;4915467;29;20614;-68
2023/09/11 00:10:41;;;;;;;19.48;10.32;;;;;;;21.50;100.00;101131.19;4918053;29;20035;-68
2023/09/11 00:13:06;;;;;;;17.02;10.45;;;;;;;21.49;100.00;101134.03;4917081;29;20076;-67
2023/09/11 00:15:34;;;;;;;14.45;10.55;;;;;;;21.46;100.00;101129.22;4913982;29;20128;-68
2023/09/11 00:17:59;;;;;;;14.60;10.30;;;;;;;21.45;100.00;101124.97;4919506;29;20054;-67
2023/09/11 00:20:25;;;;;;;12.98;10.05;;;;;;;21.40;100.00;101125.59;4919771;29;20530;-68
2023/09/11 00:22:51;;;;;;;15.27;10.07;;;;;;;21.37;100.00;101118.91;4915514;29;20035;-67
2023/09/11 00:25:16;;;;;;;18.20;11.43;;;;;;;21.35;100.00;101125.44;4928480;28;20430;-67
2023/09/11 00:27:42;;;;;;;14.27;9.98;;;;;;;21.32;100.00;101121.44;4917843;29;20123;-67
2023/09/11 00:30:07;;;;;;;19.48;11.05;;;;;;;21.30;100.00;101125.28;4924963;29;20076;-68
2023/09/11 00:32:33;;;;;;;14.30;10.40;;;;;;;21.27;100.00;101120.47;4927833;28;20039;-68
2023/09/11 00:34:58;;;;;;;14.48;10.43;;;;;;;21.24;100.00;101119.06;4915340;29;20035;-67
2023/09/11 00:37:24;;;;;;;18.23;10.32;;;;;;;21.21;100.00;101111.59;4921079;29;20032;-68
2023/09/11 00:39:49;;;;;;;17.38;11.65;;;;;;;21.17;100.00;101113.88;4921420;29;20029;-68
2023/09/11 00:42:15;;;;;;;15.32;10.85;;;;;;;21.15;100.00;101115.94;4914720;29;20037;-68
2023/09/11 00:44:40;;;;;;;18.10;10.75;;;;;;;21.13;100.00;101110.03;4915663;29;20154;-68
2023/09/11 00:47:06;;;;;;;19.60;10.88;;;;;;;21.12;100.00;101112.91;4936326;28;20056;-67
2023/09/11 00:49:32;;;;;;;18.20;10.85;;;;;;;21.09;100.00;101111.50;4918420;29;20027;-67
2023/09/11 00:51:59;;;;;;;22.42;12.65;;;;;;;21.06;100.00;101109.31;4914994;29;20044;-67
2023/09/11 00:54:26;;;;;;;16.33;11.10;;;;;;;21.06;100.00;101116.41;4946304;28;20329;-67
2023/09/11 00:56:52;;;;;;;14.85;10.57;;;;;;;21.04;100.00;101103.47;4910116;29;20596;-68
2023/09/11 00:59:18;;;;;;;20.70;11.77;;;;;;;21.00;100.00;101097.00;4925630;29;20118;-67
2023/09/11 01:01:45;;;;;;;15.13;10.90;;;;;;;20.96;100.00;101103.72;4913536;29;20127;-67
2023/09/11 01:04:11;;;;;;;15.95;10.57;;;;;;;20.94;100.00;101098.66;4932548;29;20031;-67
2023/09/11 01:06:37;;;;;;;23.05;11.77;;;;;;;20.95;100.00;101102.13;4919791;29;20032;-68
2023/09/11 01:09:03;;;;;;;20.30;11.18;;;;;;;20.94;100.00;101098.66;4914705;29;20047;-67
2023/09/11 01:11:29;;;;;;;19.80;9.77;;;;;;;20.95;100.00;101107.41;4925558;28;20047;-67
2023/09/11 01:13:55;;;;;;;15.75;10.10;;;;;;;20.94;100.00;101103.16;4925269;29;20048;-67
2023/09/11 01:16:34;;;;;;;16.65;10.45;;;;;;;20.91;100.00;101106.22;4929238;28;20118;-68
2023/09/11 01:19:30;;;;;;;13.13;10.65;;;;;;;20.86;100.00;101104.22;4931737;29;20046;-68
2023/09/11 01:22:19;;;;;;;17.55;10.15;;;;;;;20.82;100.00;101100.41;4925915;29;20115;-68
2023/09/11 01:25:20;;;;;;;13.55;10.43;;;;;;;20.77;100.00;101097.63;4929096;29;20479;-68
2023/09/11 01:28:08;;;;;;;18.08;10.23;;;;;;;20.71;100.00;101088.75;4913897;29;20037;-68
2023/09/11 01:30:34;;;;;;;20.23;10.63;;;;;;;20.67;100.00;101089.41;4929936;29;20047;-67
2023/09/11 01:33:00;;;;;;;15.63;10.95;;;;;;;20.66;100.00;101085.94;4934153;28;20043;-68
2023/09/11 01:35:25;;;;;;;23.33;13.10;;;;;;;20.65;100.00;101094.91;4921618;29;20040;-67
2023/09/11 01:37:51;;;;;;;26.83;17.52;;;;;;;20.64;100.00;101092.47;4933473;28;20044;-67
2023/09/11 01:40:19;;;;;;;21.95;15.68;;;;;;;20.59;100.00;101093.09;4918079;29;20042;-67
2023/09/11 01:42:49;;;;;;;31.30;17.30;;;;;;;20.59;100.00;101086.00;4941089;28;20140;-67
2023/09/11 01:45:16;;;;;;;22.52;14.30;;;;;;;20.57;100.00;101088.03;4929777;29;20610;-67
2023/09/11 01:47:48;;;;;;;25.42;15.55;;;;;;;20.56;100.00;101083.78;4914940;29;20036;-68
2023/09/11 01:50:18;;;;;;;26.20;14.00;;;;;;;20.56;100.00;101077.72;4931379;29;20459;-68
2023/09/11 01:52:46;;;;;;;17.67;12.73;;;;;;;20.57;100.00;101081.97;4934656;29;20032;-68
2023/09/11 01:55:12;;;;;;;20.38;11.77;;;;;;;20.56;100.00;101075.09;4927854;28;20636;-68
2023/09/11 01:57:37;;;;;;;21.17;11.45;;;;;;;20.56;100.00;101089.03;4931927;28;20095;-67
2023/09/11 02:00:05;;;;;;;21.60;11.75;;;;;;;20.53;100.00;101088.66;4935432;29;20106;-67
2023/09/11 02:02:38;;;;;;;25.67;12.80;;;;;;;20.50;100.00;101086.47;4926339;28;20036;-68
2023/09/11 02:05:04;;;;;;;18.95;11.50;;;;;;;20.47;100.00;101085.06;4926996;29;20402;-68
2023/09/11 02:07:29;;;;;;;20.33;12.43;;;;;;;20.43;100.00;101079.41;4934266;28;20084;-68
2023/09/11 02:09:55;;;;;;;15.70;12.20;;;;;;;20.39;100.00;101085.34;4934589;29;20036;-67
2023/09/11 02:12:22;;;;;;;21.30;11.98;;;;;;;20.36;100.00;101083.13;4919290;29;20037;-67
2023/09/11 02:14:48;;;;;;;17.30;11.85;;;;;;;20.33;100.00;101094.91;4932244;29;20039;-68
2023/09/11 02:17:13;;;;;;;18.00;11.82;;;;;;;20.31;100.00;101094.31;4933599;28;20111;-68
2023/09/11 02:19:39;;;;;;;18.85;11.32;;;;;;;20.31;100.00;101090.88;4936753;29;20099;-68
2023/09/11 02:22:04;;;;;;;19.85;13.02;;;;;;;20.28;100.00;101078.13;4925159;28;21196;-68
2023/09/11 02:24:30;;;;;;;21.75;12.88;;;;;;;20.27;100.00;101082.59;4931793;29;20521;-68
2023/09/11 02:26:56;;;;;;;20.10;12.80;;;;;;;20.26;100.00;101085.44;4949275;28;20032;-68
2023/09/11 02:29:22;;;;;;;20.15;12.38;;;;;;;20.24;100.00;101088.28;4919984;29;20036;-68
2023/09/11 02:31:47;;;;;;;16.70;11.77;;;;;;;20.22;100.00;101074.53;4926665;28;20114;-68
2023/09/11 02:34:12;;;;;;;19.55;11.75;;;;;;;20.21;100.00;101083.44;4934725;29;20032;-68
2023/09/11 02:36:38;;;;;;;19.42;11.25;;;;;;;20.20;100.00;101081.84;4922525;28;20068;-68
2023/09/11 02:39:04;;;;;;;21.30;12.05;;;;;;;20.18;100.00;101084.66;4916919;29;20043;-68
2023/09/11 02:41:29;;;;;;;19.33;11.70;;;;;;;20.17;100.00;101082.25;4917885;29;20127;-68
2023/09/11 02:43:55;;;;;;;21.95;11.13;;;;;;;20.14;100.00;101080.84;4917898;29;20411;-67
2023/09/11 02:46:20;;;;;;;17.67;11.57;;;;;;;20.10;100.00;101082.31;4930997;28;20032;-67
2023/09/11 02:48:47;;;;;;;20.63;10.95;;;;;;;20.08;100.00;101078.25;4928538;29;20036;-68
2023/09/11 02:51:13;;;;;;;21.45;11.63;;;;;;;20.05;100.00;101073.44;4931342;29;20047;-68
2023/09/11 02:53:38;;;;;;;17.63;11.73;;;;;;;20.00;100.00;101074.06;4928740;29;21306;-68
2023/09/11 02:56:04;;;;;;;19.73;11.80;;;;;;;19.98;100.00;101069.00;4947959;28;20075;-68
2023/09/11 02:58:30;;;;;;;18.58;11.13;;;;;;;19.96;100.00;101068.41;4929334;29;20043;-68
2023/09/11 03:01:01;;;;;;;16.23;11.60;;;;;;;19.93;100.00;101066.22;4933756;29;20055;-67
2023/09/11 03:03:27;;;;;;;16.35;12.25;;;;;;;19.91;100.00;101064.78;4918897;29;20030;-68
2023/09/11 03:06:00;;;;;;;18.75;12.25;;;;;;;19.88;100.00;101063.41;4931450;28;20043;-68
2023/09/11 03:08:26;;;;;;;19.45;13.57;;;;;;;19.85;100.00;101058.53;4931343;29;20036;-68
2023/09/11 03:11:03;;;;;;;20.80;12.77;;;;;;;19.86;100.00;101062.00;4928003;29;20210;-68
2023/09/11 03:13:29;;;;;;;19.30;13.02;;;;;;;19.82;100.00;101053.72;4930786;29;20398;-68
2023/09/11 03:15:54;;;;;;;22.20;14.50;;;;;;;19.79;100.00;101054.94;4933265;28;20043;-68
2023/09/11 03:18:20;;;;;;;15.40;12.27;;;;;;;19.77;100.00;101054.34;4919049;29;20035;-68
2023/09/11 03:20:52;;;;;;;19.48;13.38;;;;;;;19.76;100.00;101052.75;4912497;29;20380;-68
2023/09/11 03:23:21;;;;;;;19.52;13.40;;;;;;;19.75;100.00;101056.38;4934577;28;20038;-68
2023/09/11 03:25:47;;;;;;;19.67;13.20;;;;;;;19.73;100.00;101053.16;4932370;28;20491;-68
2023/09/11 03:28:14;;;;;;;18.67;12.20;;;;;;;19.70;100.00;101050.09;4929238;29;20491;-68
2023/09/11 03:30:39;;;;;;;22.90;13.18;;;;;;;19.65;100.00;101048.13;4922470;29;20043;-68
2023/09/11 03:33:05;;;;;;;26.55;13.95;;;;;;;19.60;100.00;101048.72;4932318;29;20036;-68
2023/09/11 03:35:30;;;;;;;19.67;13.13;;;;;;;19.55;100.00;101040.69;4946891;28;20043;-68
2023/09/11 03:37:56;;;;;;;19.67;13.65;;;;;;;19.53;100.00;101045.31;4946759;28;20039;-68
2023/09/11 03:40:22;;;;;;;23.65;14.00;;;;;;;19.50;100.00;101044.97;4919527;29;20553;-68
2023/09/11 03:42:48;;;;;;;32.70;15.70;;;;;;;19.45;100.00;101042.94;4932223;28;20430;-68
2023/09/11 03:45:14;;;;;;;21.55;14.07;;;;;;;19.42;100.00;101033.66;4914105;29;20031;-68
2023/09/11 03:47:40;;;;;;;23.67;15.02;;;;;;;19.42;100.00;101038.09;4911915;29;20447;-68
2023/09/11 03:50:07;;;;;;;18.20;13.63;;;;;;;19.44;100.00;101029.00;4933787;29;20372;-68
2023/09/11 03:52:32;;;;;;;19.35;14.63;;;;;;;19.44;100.00;101039.50;4933812;28;20430;-68
2023/09/11 03:54:58;;;;;;;23.38;16.83;;;;;;;19.43;100.00;101040.50;4935858;28;20039;-68
2023/09/11 03:57:23;;;;;;;24.27;15.60;;;;;;;19.40;100.00;101037.50;4933029;28;20048;-68
2023/09/11 03:59:49;;;;;;;25.58;16.35;;;;;;;19.39;100.00;101036.69;4931645;29;20055;-69
2023/09/11 04:02:14;;;;;;;24.08;15.05;;;;;;;19.39;100.00;101023.53;4927379;28;20050;-68
2023/09/11 04:04:40;;;;;;;23.02;14.75;;;;;;;19.37;100.00;101030.03;4913221;29;20016;-68
2023/09/11 04:07:05;;;;;;;22.85;15.82;;;;;;;19.32;100.00;101019.34;4915088;29;20727;-68
2023/09/11 04:09:32;;;;;;;24.20;15.10;;;;;;;19.30;100.00;101021.38;4932080;29;20032;-68
2023/09/11 04:12:00;;;;;;;23.95;15.70;;;;;;;19.26;100.00;101024.41;4932461;28;20055;-67
2023/09/11 04:14:25;;;;;;;26.75;17.30;;;;;;;19.25;100.00;101022.81;4915263;29;20364;-68
2023/09/11 04:16:51;;;;;;;19.70;15.23;;;;;;;19.25;100.00;101022.81;4928053;28;20067;-68
2023/09/11 04:19:16;;;;;;;23.50;15.60;;;;;;;19.23;100.00;101019.56;4915967;29;20035;-68
2023/09/11 04:21:42;;;;;;;22.33;16.10;;;;;;;19.22;100.00;101022.41;4932687;28;20125;-68
2023/09/11 04:24:12;;;;;;;25.85;17.50;;;;;;;19.19;100.00;101014.94;4917478;29;20415;-68
2023/09/11 04:26:43;;;;;;;27.20;18.63;;;;;;;19.17;100.00;101015.13;4919497;28;20103;-68
2023/09/11 04:29:11;;;;;;;28.38;15.63;;;;;;;19.16;100.00;101021.41;4913004;29;20125;-68
2023/09/11 04:31:38;;;;;;;26.42;17.35;;;;;;;19.13;100.00;101019.19;4929237;28;20111;-68
2023/09/11 04:34:04;;;;;;;27.70;15.98;;;;;;;19.13;100.00;101027.06;4915456;29;20503;-68
2023/09/11 04:36:30;;;;;;;20.80;15.85;;;;;;;19.12;100.00;101017.59;4927510;28;20063;-68
2023/09/11 04:38:55;;;;;;;29.60;16.60;;;;;;;19.11;100.00;101015.16;4915188;29;20024;-68
2023/09/11 04:41:21;;;;;;;30.92;17.80;;;;;;;19.11;100.00;101015.97;4918524;28;20056;-68
2023/09/11 04:43:47;;;;;;;34.35;18.05;;;;;;;19.09;100.00;101014.56;4934619;29;20031;-68
2023/09/11 04:46:12;;;;;;;28.05;17.90;;;;;;;19.11;100.00;101015.16;4917867;29;20074;-67
2023/09/11 04:48:38;;;;;;;29.58;18.45;;;;;;;19.10;100.00;101014.38;4934874;29;20032;-68
2023/09/11 04:51:05;;;;;;;28.90;18.58;;;;;;;19.05;100.00;101011.53;4910249;29;20045;-68
2023/09/11 04:53:30;;;;;;;23.15;16.20;;;;;;;19.05;100.00;101009.72;4928205;29;20131;-68
2023/09/11 04:55:56;;;;;;;27.98;17.33;;;;;;;19.02;100.00;101009.31;4916100;28;20039;-68
2023/09/11 04:58:22;;;;;;;25.92;16.65;;;;;;;18.98;100.00;101010.75;4916920;29;20032;-68
2023/09/11 05:00:48;;;;;;;28.33;18.25;;;;;;;18.94;100.00;101010.34;4928912;29;20064;-69
2023/09/11 05:03:13;;;;;;;24.75;18.23;;;;;;;18.93;100.00;101007.94;4929492;28;20385;-68
2023/09/11 05:05:40;;;;;;;27.63;17.95;;;;;;;18.94;100.00;101017.44;4934958;29;20031;-68
2023/09/11 05:08:07;;;;;;;26.92;18.83;;;;;;;18.96;100.00;101012.78;4923134;29;20052;-68
2023/09/11 05:10:34;;;;;;;28.85;18.38;;;;;;;19.00;100.00;101013.97;4934887;28;20430;-68
2023/09/11 05:12:59;;;;;;;27.08;17.90;;;;;;;19.01;100.00;101013.78;4934439;28;20210;-68
2023/09/11 05:15:25;;;;;;;32.67;19.85;;;;;;;18.99;100.00;101015.00;4951595;28;20534;-68
2023/09/11 05:17:51;;;;;;;30.23;18.60;;;;;;;19.06;100.00;101018.41;4937034;28;20040;-68
2023/09/11 05:20:16;;;;;;;31.58;19.65;;;;;;;19.02;100.00;101020.66;4920458;29;20566;-68
2023/09/11 05:22:42;;;;;;;29.63;20.17;;;;;;;19.10;100.00;101024.06;4919749;28;20052;-68
2023/09/11 05:25:08;;;;;;;31.27;19.98;;;;;;;19.09;100.00;101031.13;4916533;29;20040;-68
2023/09/11 05:27:34;;;;;;;30.00;19.83;;;;;;;19.05;100.00;101032.56;4929832;28;20127;-68
2023/09/11 05:29:59;;;;;;;33.90;19.73;;;;;;;19.02;100.00;101028.53;4920130;29;20051;-68
2023/09/11 05:32:25;;;;;;;29.70;20.13;;;;;;;19.04;100.00;101031.75;4938014;28;20056;-67
2023/09/11 05:34:53;;;;;;;33.30;19.38;;;;;;;19.11;100.00;101026.47;4915447;29;20045;-68
2023/09/11 05:37:19;;;;;;;31.67;19.90;;;;;;;19.11;100.00;101029.09;4933408;28;20559;-68
2023/09/11 05:39:45;;;;;;;30.65;19.75;;;;;;;19.08;100.00;101032.16;4923262;29;20036;-68
2023/09/11 05:42:11;;;;;;;40.33;20.27;;;;;;;19.00;100.00;101032.38;4916701;28;20510;-68
2023/09/11 05:44:36;;;;;;;33.90;18.33;;;;;;;19.03;100.00;101039.84;4914670;29;20032;-68
2023/09/11 05:47:03;;;;;;;34.75;19.98;;;;;;;19.10;100.00;101030.13;4918273;29;20059;-67
2023/09/11 05:49:28;;;;;;;34.80;18.95;;;;;;;19.10;100.00;101037.19;4926629;29;20036;-67
2023/09/11 05:51:55;;;;;;;35.70;19.70;;;;;;;19.08;100.00;101033.97;4916343;29;20032;-68
2023/09/11 05:54:20;;;;;;;30.02;19.38;;;;;;;19.15;100.00;101032.94;4920595;29;20096;-67
2023/09/11 05:56:46;;;;;;;30.25;19.05;;;;;;;19.17;100.00;101033.53;4936144;28;20043;-68
2023/09/11 05:59:11;;;;;;;30.55;19.20;;;;;;;19.10;100.00;101035.38;4935146;29;20036;-67
2023/09/11 06:01:37;;;;;;;33.63;18.42;;;;;;;19.13;100.00;101034.97;4915022;28;20043;-67
2023/09/11 06:04:03;;;;;;;34.90;17.52;;;;;;;19.18;100.00;101032.53;4915976;29;20051;-67
2023/09/11 06:06:28;;;;;;;30.30;18.88;;;;;;;19.20;100.00;101034.94;4921678;29;20043;-68
2023/09/11 06:08:55;;;;;;;28.17;17.40;;;;;;;19.22;100.00;101044.22;4920909;29;20046;-67
2023/09/11 06:11:20;;;;;;;31.33;16.98;;;;;;;19.31;100.00;101041.38;4920346;28;20036;-67
2023/09/11 06:13:48;;;;;;;24.98;15.88;;;;;;;19.32;100.00;101043.00;4917179;29;20326;-67
2023/09/11 06:16:13;;;;;;;33.20;16.23;;;;;;;19.33;100.00;101044.63;4929405;28;20048;-68
2023/09/11 06:18:39;;;;;;;27.23;15.50;;;;;;;19.46;100.00;101047.19;4916686;29;20027;-67
2023/09/11 06:21:04;;;;;;;28.35;16.02;;;;;;;19.51;100.00;101044.72;4919273;28;20051;-67
2023/09/11 06:23:30;;;;;;;32.63;16.58;;;;;;;19.50;100.00;101042.31;4916454;29;20050;-68
2023/09/11 06:25:55;;;;;;;27.85;16.35;;;;;;;19.64;100.00;101046.50;4919882;29;20032;-67
2023/09/11 06:28:21;;;;;;;29.15;16.23;;;;;;;19.72;100.00;101048.06;4930494;29;20471;-67
2023/09/11 06:30:46;;;;;;;38.17;18.08;;;;;;;19.81;100.00;101060.78;4914749;29;20039;-68
2023/09/11 06:33:12;;;;;;;25.13;13.45;;;;;;;19.86;100.00;101056.75;4913352;29;20033;-68
2023/09/11 06:35:37;;;;;;;25.50;15.48;;;;;;;20.00;100.00;101059.09;4917152;29;20817;-67
2023/09/11 06:38:03;;;;;;;23.52;14.35;;;;;;;20.18;100.00;101039.91;4914022;29;20047;-67
2023/09/11 06:40:28;;;;;;;26.45;15.18;;;;;;;20.25;100.00;101045.16;4918216;29;20041;-67
2023/09/11 06:42:54;;;;;;;27.75;13.88;;;;;;;20.45;100.00;101047.59;4930641;28;20087;-68
2023/09/11 06:45:20;;;;;;;26.17;13.73;;;;;;;20.75;100.00;101036.44;4926673;29;20035;-67
2023/09/11 06:47:45;;;;;;;23.45;13.48;;;;;;;21.00;100.00;101044.28;4916598;29;20039;-68
2023/09/11 06:50:11;;;;;;;24.85;13.13;;;;;;;21.38;98.97;101041.41;4916822;29;20047;-67
2023/09/11 06:52:40;;;;;;;25.27;13.60;;;;;;;21.85;94.61;101047.94;4912948;29;20039;-67
2023/09/11 06:55:09;;;;;;;26.38;12.82;;;;;;;22.28;92.18;101045.09;4931780;29;20032;-67
2023/09/11 06:57:35;;;;;;;22.83;12.43;;;;;;;22.74;88.65;101046.13;4927084;28;20051;-67
2023/09/11 07:00:01;;;;;;;24.98;11.88;;;;;;;23.19;85.60;101034.13;4912834;29;20032;-68
2023/09/11 07:02:26;;;;;;;22.80;11.07;;;;;;;23.74;83.94;101029.34;4915753;29;20040;-67
2023/09/11 07:04:51;;;;;;;30.75;11.23;;;;;;;24.28;81.64;101032.38;4911854;29;20040;-67
2023/09/11 07:07:17;;;;;;;26.20;10.50;;;;;;;24.56;79.06;101028.81;4919629;29;20043;-68
2023/09/11 07:09:42;;;;;;;20.75;10.60;;;;;;;24.76;78.77;101032.81;4920731;29;20102;-68
2023/09/11 07:12:08;;;;;;;18.02;9.85;;;;;;;24.81;79.03;101028.38;4918083;29;20043;-68
2023/09/11 07:14:33;;;;;;;22.40;10.30;;;;;;;24.90;77.54;101033.22;4917732;29;20534;-68
2023/09/11 07:17:02;;;;;;;26.65;10.48;;;;;;;24.96;74.30;101029.59;4913442;29;20040;-67
2023/09/11 07:19:27;;;;;;;19.98;11.23;;;;;;;25.06;74.29;101027.88;4915239;29;20407;-67
2023/09/11 07:21:53;;;;;;;22.92;9.85;;;;;;;25.60;72.54;101027.16;4912285;29;20044;-68
2023/09/11 07:24:18;;;;;;;18.90;10.30;;;;;;;25.66;70.84;101021.91;4914168;29;20044;-68
2023/09/11 07:26:44;;;;;;;19.48;9.90;;;;;;;26.02;71.52;101021.16;4911760;29;20055;-68
2023/09/11 07:29:09;;;;;;;20.42;9.50;;;;;;;26.11;68.53;101016.19;4917255;29;20044;-68
2023/09/11 07:31:35;;;;;;;16.25;9.15;;;;;;;26.23;68.74;101010.69;4929788;28;20044;-68
2023/09/11 07:34:01;;;;;;;22.13;8.70;;;;;;;26.30;68.74;101011.28;4914616;29;20087;-68
2023/09/11 07:36:29;;;;;;;26.38;9.68;;;;;;;26.22;67.94;101017.88;4926498;29;20036;-68
2023/09/11 07:38:56;;;;;;;17.40;9.20;;;;;;;26.41;67.48;101009.50;4915700;29;20459;-68
2023/09/11 07:41:22;;;;;;;21.40;9.02;;;;;;;26.53;66.63;101017.25;4923243;29;20045;-68
2023/09/11 07:43:50;;;;;;;19.15;9.02;;;;;;;26.73;67.42;101016.56;4933813;29;20159;-68
2023/09/11 07:46:20;;;;;;;15.93;8.40;;;;;;;27.23;64.71;101019.69;4920009;29;20043;-68
2023/09/11 07:48:46;;;;;;;21.52;9.00;;;;;;;27.07;64.09;101024.16;4916862;29;20044;-68
2023/09/11 07:51:12;;;;;;;21.25;8.70;;;;;;;26.99;64.88;101010.31;4914474;29;20037;-68
2023/09/11 07:53:40;;;;;;;19.95;8.38;;;;;;;27.05;64.45;101015.66;4946036;28;20094;-68
2023/09/11 07:56:07;;;;;;;20.25;8.75;;;;;;;27.60;62.52;101024.06;4925419;28;20399;-68
2023/09/11 07:58:34;;;;;;;16.88;8.25;;;;;;;28.04;61.66;101024.34;4915767;29;20108;-68
2023/09/11 08:00:59;;;;;;;26.80;7.50;;;;;;;28.38;61.07;101015.00;4928681;29;20175;-67
2023/09/11 08:03:25;;;;;;;18.02;8.00;;;;;;;28.43;60.29;101020.31;4927427;29;20046;-68
2023/09/11 08:05:50;;;;;;;17.55;7.38;;;;;;;28.73;59.58;101022.13;4929430;28;20040;-68
2023/09/11 08:08:16;;;;;;;20.85;7.30;;;;;;;28.98;57.38;101026.53;4930052;29;20097;-68
2023/09/11 08:10:41;;;;;;;14.00;6.85;;;;;;;29.21;55.99;101021.66;4924682;29;20041;-69
2023/09/11 08:13:07;;;;;;;20.52;7.95;;;;;;;28.91;54.95;101024.19;4913652;29;20036;-68
2023/09/11 08:15:32;;;;;;;19.15;6.90;;;;;;;28.96;55.19;101023.34;4912876;29;20082;-68
2023/09/11 08:17:58;;;;;;;15.48;7.90;;;;;;;29.14;54.78;101021.97;4927307;28;20040;-67
2023/09/11 08:20:23;;;;;;;18.17;7.55;;;;;;;29.40;54.21;101013.78;4919806;29;20083;-68
2023/09/11 08:22:49;;;;;;;14.65;7.25;;;;;;;29.34;52.42;101018.38;4924815;29;20394;-68
2023/09/11 08:25:15;;;;;;;13.57;6.80;;;;;;;29.42;54.61;101027.66;4914650;29;20587;-67
2023/09/11 08:27:40;;;;;;;16.48;7.63;;;;;;;29.66;53.66;101025.09;4925809;29;20040;-68
2023/09/11 08:30:06;;;;;;;15.20;6.85;;;;;;;29.64;51.60;101017.34;4908417;29;20043;-68
2023/09/11 08:32:35;;;;;;;14.48;6.30;;;;;;;29.81;52.34;101016.19;4914383;29;20403;-68
2023/09/11 08:35:02;;;;;;;18.77;6.75;;;;;;;29.88;51.99;101019.34;4925228;28;20035;-68
2023/09/11 08:37:27;;;;;;;19.88;7.53;;;;;;;30.11;53.27;101011.66;4907069;29;20064;-68
2023/09/11 08:39:53;;;;;;;19.58;6.40;;;;;;;30.27;51.24;101005.88;4927300;29;20111;-68
2023/09/11 08:42:18;;;;;;;14.80;6.20;;;;;;;30.61;51.29;101014.88;4912982;29;20051;-68
2023/09/11 08:44:44;;;;;;;17.40;6.80;;;;;;;30.66;50.36;101006.78;4906709;29;20502;-68
2023/09/11 08:47:12;;;;;;;19.08;6.95;;;;;;;30.72;51.17;101008.31;4913924;29;20036;-68
2023/09/11 08:49:49;;;;;;;14.32;6.68;;;;;;;30.95;50.46;101006.72;4928322;29;20185;-68
2023/09/11 08:52:16;;;;;;;21.88;6.55;;;;;;;31.17;49.75;101006.13;4912317;29;20067;-68
2023/09/11 08:54:43;;;;;;;21.38;5.80;;;;;;;31.08;50.35;101009.75;4929273;28;20407;-68
2023/09/11 08:57:14;;;;;;;9.30;4.90;;;;;;;31.03;49.95;101006.06;4910957;29;20099;-68
2023/09/11 08:59:43;;;;;;;13.85;5.13;;;;;;;31.10;46.05;101004.91;4924592;29;20045;-68
2023/09/11 09:02:10;;;;;;;15.15;4.13;;;;;;;31.16;45.52;100998.41;4914019;29;20048;-68
2023/09/11 09:04:37;;;;;;;10.05;4.95;;;;;;;31.21;45.38;100996.47;4911420;29;20035;-68
2023/09/11 09:07:06;;;;;;;22.20;4.93;;;;;;;31.26;45.46;101000.94;4927465;28;20045;-68
2023/09/11 09:09:32;;;;;;;12.18;5.13;;;;;;;31.30;45.60;101004.63;4927749;29;20027;-68
2023/09/11 09:11:58;;;;;;;12.15;4.45;;;;;;;31.26;45.41;100995.56;4911236;29;20047;-69
2023/09/11 09:14:27;;;;;;;8.25;4.50;;;;;;;30.91;45.46;100989.66;4913733;29;20031;-68
2023/09/11 09:16:53;;;;;;;20.52;5.88;;;;;;;31.05;45.71;100993.19;4926580;29;20093;-68
2023/09/11 09:19:18;;;;;;;13.43;5.18;;;;;;;30.99;45.36;100993.56;4930543;29;20511;-68
2023/09/11 09:22:02;;;;;;;15.55;4.85;;;;;;;31.07;44.88;100989.44;4925142;29;20085;-68
2023/09/11 09:24:27;;;;;;;15.50;4.80;;;;;;;30.92;45.90;100983.22;4911739;29;20043;-68
2023/09/11 09:27:01;;;;;;;12.95;4.95;;;;;;;30.84;46.42;100994.53;4913489;29;20116;-68
2023/09/11 09:29:32;;;;;;;19.30;5.13;;;;;;;30.90;47.73;100992.59;4928037;29;20040;-68
2023/09/11 09:32:03;;;;;;;17.52;4.95;;;;;;;31.01;46.81;100997.53;4924491;29;20055;-68
2023/09/11 09:34:31;;;;;;;12.10;5.38;;;;;;;30.94;48.04;101001.66;4909633;29;20071;-68
2023/09/11 09:36:56;;;;;;;16.00;6.30;;;;;;;30.85;48.23;100996.94;4943636;28;20055;-68
2023/09/11 09:39:24;;;;;;;12.10;4.97;;;;;;;30.89;48.12;100997.13;4924517;29;20036;-68
2023/09/11 09:41:57;;;;;;;11.70;5.63;;;;;;;30.83;48.37;100996.41;4924976;28;20036;-68
2023/09/11 09:44:37;;;;;;;10.65;4.97;;;;;;;30.82;47.79;100994.03;4912689;29;20100;-68
2023/09/11 09:47:07;;;;;;;11.02;5.30;;;;;;;30.94;47.36;100994.41;4930688;28;20396;-67
2023/09/11 09:49:46;;;;;;;13.02;5.68;;;;;;;31.02;46.09;100991.13;4911510;29;20028;-68
2023/09/11 09:52:13;;;;;;;13.35;4.75;;;;;;;31.13;45.97;100993.63;4915163;29;20055;-68
2023/09/11 09:54:42;;;;;;;14.82;5.07;;;;;;;30.99;46.66;100996.25;4912600;29;20431;-68
2023/09/11 09:57:10;;;;;;;18.42;4.78;;;;;;;30.82;47.58;100996.72;4916022;29;20052;-68
2023/09/11 09:59:36;;;;;;;13.25;4.35;;;;;;;30.84;48.87;101008.72;4920570;29;20038;-68
2023/09/11 10:02:01;;;;;;;16.98;5.13;;;;;;;30.79;48.23;101002.63;4915731;29;20130;-68
2023/09/11 10:04:28;;;;;;;10.63;4.53;;;;;;;30.84;47.72;100991.84;4917965;29;20141;-68
2023/09/11 10:06:54;;;;;;;16.45;5.10;;;;;;;30.80;48.27;100994.31;4930796;28;20441;-68
2023/09/11 10:09:20;;;;;;;16.23;4.63;;;;;;;30.72;47.99;100997.59;4929121;29;20040;-68
2023/09/11 10:11:46;;;;;;;12.18;5.30;;;;;;;30.64;48.27;100992.91;4911226;29;20131;-68
2023/09/11 10:14:12;;;;;;;7.53;4.22;;;;;;;30.71;49.27;100990.69;4930001;29;20039;-68
2023/09/11 10:16:37;;;;;;;11.43;5.38;;;;;;;30.73;50.20;100996.53;4911238;29;20087;-68
2023/09/11 10:19:03;;;;;;;11.38;4.93;;;;;;;30.92;50.02;100995.81;4920370;29;20647;-68
2023/09/11 10:21:30;;;;;;;18.52;6.35;;;;;;;30.84;48.84;100989.97;4911423;29;20049;-68
2023/09/11 10:23:56;;;;;;;12.65;5.88;;;;;;;30.85;48.40;100988.09;4908347;29;20032;-68
2023/09/11 10:26:27;;;;;;;15.90;6.40;;;;;;;30.91;48.79;100984.31;4941152;28;20036;-68
2023/09/11 10:28:55;;;;;;;15.27;4.90;;;;;;;31.07;47.34;100981.41;4945024;28;20123;-68
2023/09/11 10:31:25;;;;;;;26.30;5.95;;;;;;;30.85;48.97;100980.88;4928162;28;20063;-68
2023/09/11 10:33:55;;;;;;;14.13;5.57;;;;;;;30.80;48.49;100986.28;4917458;29;20032;-68
2023/09/11 10:36:23;;;;;;;18.83;5.90;;;;;;;30.82;49.81;100972.63;4914073;29;20525;-68
2023/09/11 10:38:52;;;;;;;12.18;5.30;;;;;;;30.71;49.45;100976.50;4912634;29;20042;-68
2023/09/11 10:41:17;;;;;;;9.93;4.80;;;;;;;30.81;49.06;100979.03;4914570;29;20092;-68
2023/09/11 10:43:45;;;;;;;14.98;5.22;;;;;;;30.91;49.01;100973.59;4926705;29;20516;-68
2023/09/11 10:46:15;;;;;;;7.90;4.32;;;;;;;30.98;51.71;100970.53;4912758;29;20032;-68
2023/09/11 10:48:40;;;;;;;11.02;5.43;;;;;;;31.07;50.13;100963.47;4943498;28;20049;-68
2023/09/11 10:51:06;;;;;;;10.10;4.85;;;;;;;31.18;49.88;100964.91;4911335;29;20063;-68
2023/09/11 10:53:32;;;;;;;11.18;5.10;;;;;;;31.30;49.01;100966.34;4914079;29;20051;-68
2023/09/11 10:56:01;;;;;;;10.38;4.97;;;;;;;30.98;49.51;100965.97;4912235;29;20029;-68
2023/09/11 10:58:28;;;;;;;17.25;5.47;;;;;;;31.03;49.83;100965.13;4910397;29;20480;-68
2023/09/11 11:01:00;;;;;;;12.88;5.47;;;;;;;30.84;50.01;100957.84;4914374;29;20051;-68
2023/09/11 11:03:28;;;;;;;12.77;5.22;;;;;;;30.90;50.85;100953.25;4910028;29;20063;-68
2023/09/11 11:05:54;;;;;;;10.77;5.25;;;;;;;30.99;50.48;100948.84;4911764;29;20051;-68